Time;durP1;ratioP1;P1;durP2;ratioP2;P2;SDS_P1;SDS_P2;PMS_P1;PMS_P2;Temp;Humidity;BMP_temperature;BMP_pressure;BME280_temperature;BME280_humidity;BME280_pressure;Samples;Min_cycle;Max_cycle;Signal;HPM_P1;HPM_P2
2021/04/29 00:28:12;;;;;;;2.65;2.12;;;;;;;;;;4132844;32;20452;-70
2021/04/29 00:30:38;;;;;;;2.42;1.87;;;;;;;;;;4137521;34;20120;-70
2021/04/29 00:33:04;;;;;;;2.30;2.08;;;;;;;;;;4124229;34;20133;-71
2021/04/29 00:35:30;;;;;;;2.90;2.00;;;;;;;;;;4124105;34;20158;-71
2021/04/29 00:37:56;;;;;;;1.90;1.80;;;;;;;;;;4124118;34;20520;-70
2021/04/29 00:40:22;;;;;;;2.50;2.30;;;;;;;;;;4111651;34;20139;-70
2021/04/29 00:42:47;;;;;;;2.35;2.05;;;;;;;;;;4124111;34;20120;-70
2021/04/29 00:45:13;;;;;;;3.37;2.25;;;;;;;;;;4123942;34;20558;-70
2021/04/29 00:47:39;;;;;;;2.42;2.22;;;;;;;;;;4123944;34;20211;-70
2021/04/29 00:50:07;;;;;;;2.78;2.12;;;;;;;;;;4124008;34;20120;-70
2021/04/29 00:52:32;;;;;;;3.97;2.28;;;;;;;;;;4123869;34;20106;-70
2021/04/29 00:54:59;;;;;;;3.15;2.00;;;;;;;;;;4124184;34;20104;-70
2021/04/29 00:57:25;;;;;;;2.60;2.28;;;;;;;;;;4100663;34;20206;-70
2021/04/29 00:59:52;;;;;;;2.55;2.30;;;;;;;;;;4123842;34;20562;-70
2021/04/29 01:02:18;;;;;;;4.15;2.00;;;;;;;;;;4100808;34;20524;-70
2021/04/29 01:04:55;;;;;;;2.45;2.22;;;;;;;;;;4100591;34;20126;-70
2021/04/29 01:07:21;;;;;;;2.15;1.95;;;;;;;;;;4111469;34;20146;-70
2021/04/29 01:10:22;;;;;;;2.65;2.25;;;;;;;;;;4100518;34;20139;-70
2021/04/29 01:13:06;;;;;;;3.20;2.90;;;;;;;;;;4108197;34;20194;-70
2021/04/29 01:15:34;;;;;;;2.50;2.30;;;;;;;;;;4123812;34;20099;-70
2021/04/29 01:18:00;;;;;;;4.03;2.50;;;;;;;;;;4100246;34;20092;-68
2021/04/29 01:20:48;;;;;;;2.30;2.10;;;;;;;;;;4111357;34;20175;-68
2021/04/29 01:23:16;;;;;;;3.78;2.10;;;;;;;;;;4112117;34;20116;-68
2021/04/29 01:25:42;;;;;;;3.25;2.35;;;;;;;;;;4123576;34;20107;-68
2021/04/29 01:28:08;;;;;;;2.40;2.20;;;;;;;;;;4111142;34;20115;-68
2021/04/29 01:30:34;;;;;;;2.42;2.22;;;;;;;;;;4111281;34;20615;-68
2021/04/29 01:33:00;;;;;;;2.62;2.30;;;;;;;;;;4111753;34;20436;-68
2021/04/29 01:35:26;;;;;;;2.92;2.37;;;;;;;;;;4111203;34;20125;-68
2021/04/29 01:37:52;;;;;;;3.30;2.30;;;;;;;;;;4111161;34;20554;-69
2021/04/29 01:40:18;;;;;;;6.12;2.40;;;;;;;;;;4111113;34;20552;-68
2021/04/29 01:42:44;;;;;;;2.05;1.90;;;;;;;;;;4123521;34;20513;-68
2021/04/29 01:45:10;;;;;;;4.30;2.55;;;;;;;;;;4123778;34;20122;-68
2021/04/29 01:47:36;;;;;;;2.83;2.40;;;;;;;;;;4123878;34;20258;-68
2021/04/29 01:50:03;;;;;;;2.90;2.30;;;;;;;;;;4123821;34;20115;-69
2021/04/29 01:52:29;;;;;;;2.55;2.10;;;;;;;;;;4111258;34;20187;-68
2021/04/29 01:54:55;;;;;;;2.40;2.20;;;;;;;;;;4111002;34;20150;-68
2021/04/29 01:57:21;;;;;;;3.12;2.30;;;;;;;;;;4111350;34;20135;-68
2021/04/29 01:59:47;;;;;;;2.40;2.15;;;;;;;;;;4123810;34;20159;-68
2021/04/29 02:02:13;;;;;;;2.65;2.12;;;;;;;;;;4124421;34;20219;-67
2021/04/29 02:04:39;;;;;;;2.28;2.08;;;;;;;;;;4110928;34;20150;-68
2021/04/29 02:07:05;;;;;;;2.70;2.40;;;;;;;;;;4124605;34;20193;-69
2021/04/29 02:09:31;;;;;;;2.95;2.58;;;;;;;;;;4123449;34;20139;-70
2021/04/29 02:11:59;;;;;;;5.90;3.65;;;;;;;;;;4122237;34;20675;-70
2021/04/29 02:14:40;;;;;;;2.90;1.98;;;;;;;;;;4111195;34;20134;-70
2021/04/29 02:17:14;;;;;;;2.22;1.98;;;;;;;;;;4110969;34;20120;-70
2021/04/29 02:19:41;;;;;;;2.40;2.20;;;;;;;;;;4110988;34;20208;-70
2021/04/29 02:22:08;;;;;;;3.25;2.25;;;;;;;;;;4110671;34;20174;-70
2021/04/29 02:24:33;;;;;;;2.90;2.12;;;;;;;;;;4110927;34;20119;-69
2021/04/29 02:27:00;;;;;;;2.80;2.33;;;;;;;;;;4099540;34;20147;-69
2021/04/29 02:29:26;;;;;;;2.10;1.90;;;;;;;;;;4110937;34;20135;-70
2021/04/29 02:31:52;;;;;;;2.80;2.37;;;;;;;;;;4101702;34;20123;-70
2021/04/29 02:34:19;;;;;;;3.20;2.17;;;;;;;;;;4112879;34;20150;-70
2021/04/29 02:36:45;;;;;;;2.20;2.00;;;;;;;;;;4101746;34;20096;-70
2021/04/29 02:39:10;;;;;;;5.03;3.10;;;;;;;;;;4112653;34;20153;-70
2021/04/29 02:41:36;;;;;;;3.17;2.45;;;;;;;;;;4125079;34;20123;-70
2021/04/29 02:44:03;;;;;;;4.80;2.55;;;;;;;;;;4112665;34;20123;-70
2021/04/29 02:46:29;;;;;;;2.67;2.33;;;;;;;;;;4112718;34;20272;-72
2021/04/29 02:48:55;;;;;;;2.33;2.12;;;;;;;;;;4125279;34;20210;-71
2021/04/29 02:51:20;;;;;;;3.65;2.12;;;;;;;;;;4125070;34;20131;-71
2021/04/29 02:53:46;;;;;;;3.65;2.50;;;;;;;;;;4112767;34;20135;-71
2021/04/29 02:56:12;;;;;;;3.30;2.40;;;;;;;;;;4112793;34;20212;-70
2021/04/29 02:58:45;;;;;;;3.53;2.20;;;;;;;;;;4112538;34;20127;-70
2021/04/29 03:01:11;;;;;;;3.03;2.35;;;;;;;;;;4124675;34;20115;-69
2021/04/29 03:03:37;;;;;;;2.70;2.12;;;;;;;;;;4114039;34;20112;-70
2021/04/29 03:06:04;;;;;;;4.37;2.30;;;;;;;;;;4129425;34;20131;-70
2021/04/29 03:08:30;;;;;;;2.65;2.22;;;;;;;;;;4138813;34;20130;-73
2021/04/29 03:10:56;;;;;;;5.30;3.40;;;;;;;;;;4120261;34;20127;-71
2021/04/29 03:13:22;;;;;;;4.10;2.40;;;;;;;;;;4102918;34;20273;-67
2021/04/29 03:15:48;;;;;;;6.18;2.60;;;;;;;;;;4126790;34;20127;-67
2021/04/29 03:18:14;;;;;;;3.08;2.78;;;;;;;;;;4128243;34;20164;-67
2021/04/29 03:20:40;;;;;;;4.50;2.25;;;;;;;;;;4126730;34;20214;-67
2021/04/29 03:23:06;;;;;;;3.12;2.40;;;;;;;;;;4125209;34;20144;-67
2021/04/29 03:25:32;;;;;;;6.40;2.40;;;;;;;;;;4124814;34;20100;-67
2021/04/29 03:27:58;;;;;;;2.83;2.53;;;;;;;;;;4124663;34;20217;-67
2021/04/29 03:30:24;;;;;;;2.87;2.30;;;;;;;;;;4112436;34;20139;-67
2021/04/29 03:32:49;;;;;;;4.57;2.83;;;;;;;;;;4112433;34;20135;-67
2021/04/29 03:35:15;;;;;;;4.78;2.62;;;;;;;;;;4124736;34;20622;-68
2021/04/29 03:37:41;;;;;;;4.65;2.22;;;;;;;;;;4124768;34;20312;-68
2021/04/29 03:40:08;;;;;;;6.90;2.40;;;;;;;;;;4124647;34;20143;-68
2021/04/29 03:42:34;;;;;;;4.90;2.37;;;;;;;;;;4124242;34;20224;-70
2021/04/29 03:44:59;;;;;;;4.12;2.62;;;;;;;;;;4124569;34;20142;-69
2021/04/29 03:47:25;;;;;;;4.03;2.42;;;;;;;;;;4124747;34;20128;-69
2021/04/29 03:49:51;;;;;;;3.62;2.50;;;;;;;;;;4112129;34;20248;-69
2021/04/29 03:52:17;;;;;;;6.57;2.42;;;;;;;;;;4124438;34;20118;-68
2021/04/29 03:54:43;;;;;;;2.58;2.03;;;;;;;;;;4124393;34;20139;-69
2021/04/29 03:57:09;;;;;;;4.75;2.75;;;;;;;;;;4124510;34;20123;-68
2021/04/29 03:59:35;;;;;;;7.18;2.60;;;;;;;;;;4124272;34;20131;-69
2021/04/29 04:02:01;;;;;;;4.50;2.50;;;;;;;;;;4124253;34;20531;-69
2021/04/29 04:04:27;;;;;;;6.85;2.53;;;;;;;;;;4124293;34;20152;-69
2021/04/29 04:06:54;;;;;;;5.07;2.60;;;;;;;;;;4124409;34;20204;-69
2021/04/29 04:09:20;;;;;;;5.32;2.80;;;;;;;;;;4124493;34;20219;-69
2021/04/29 04:11:46;;;;;;;2.83;2.33;;;;;;;;;;4124139;34;20125;-68
2021/04/29 04:14:12;;;;;;;3.70;2.58;;;;;;;;;;4124499;34;20460;-68
2021/04/29 04:16:38;;;;;;;6.95;2.87;;;;;;;;;;4124070;34;20131;-69
2021/04/29 04:19:04;;;;;;;5.80;2.58;;;;;;;;;;4124089;34;20546;-69
2021/04/29 04:21:30;;;;;;;6.07;2.42;;;;;;;;;;4124166;34;20119;-68
2021/04/29 04:23:56;;;;;;;8.57;2.33;;;;;;;;;;4124104;34;20477;-69
2021/04/29 04:26:22;;;;;;;3.42;2.05;;;;;;;;;;4123886;34;20509;-69
2021/04/29 04:28:47;;;;;;;2.72;2.42;;;;;;;;;;4111697;34;20116;-69
2021/04/29 04:31:13;;;;;;;6.62;2.55;;;;;;;;;;4124044;34;20100;-70
2021/04/29 04:33:39;;;;;;;4.85;2.72;;;;;;;;;;4124088;34;20183;-70
2021/04/29 04:36:05;;;;;;;3.75;2.50;;;;;;;;;;4123976;34;20127;-69
2021/04/29 04:38:31;;;;;;;4.78;2.40;;;;;;;;;;4124021;34;20127;-69
2021/04/29 04:40:57;;;;;;;4.10;2.62;;;;;;;;;;4123814;34;20127;-70
2021/04/29 04:43:23;;;;;;;3.05;2.28;;;;;;;;;;4111610;34;20147;-69
2021/04/29 04:45:49;;;;;;;4.10;2.33;;;;;;;;;;4123951;34;20309;-70
2021/04/29 04:48:15;;;;;;;5.95;2.62;;;;;;;;;;4124230;34;20142;-70
2021/04/29 04:50:41;;;;;;;2.80;2.50;;;;;;;;;;4124142;34;20111;-69
2021/04/29 04:53:07;;;;;;;3.28;2.50;;;;;;;;;;4123259;34;20475;-69
2021/04/29 04:55:41;;;;;;;4.97;2.60;;;;;;;;;;4124016;34;20205;-69
2021/04/29 04:58:07;;;;;;;3.50;2.70;;;;;;;;;;4112797;34;20111;-69
2021/04/29 05:00:33;;;;;;;8.40;2.75;;;;;;;;;;4123780;34;20123;-70
2021/04/29 05:02:59;;;;;;;2.67;2.42;;;;;;;;;;4124017;34;20123;-70
2021/04/29 05:05:25;;;;;;;7.57;3.25;;;;;;;;;;4124283;34;20200;-68
2021/04/29 05:07:51;;;;;;;2.90;2.50;;;;;;;;;;4124464;34;20142;-69
2021/04/29 05:10:17;;;;;;;3.08;2.60;;;;;;;;;;4124314;34;20131;-69
2021/04/29 05:12:43;;;;;;;5.68;2.60;;;;;;;;;;4124687;34;20567;-69
2021/04/29 05:15:09;;;;;;;3.12;2.58;;;;;;;;;;4125406;34;20155;-69
2021/04/29 05:17:35;;;;;;;3.42;2.50;;;;;;;;;;4123839;34;20128;-69
2021/04/29 05:20:01;;;;;;;5.47;2.90;;;;;;;;;;4123740;34;20142;-69
2021/04/29 05:22:27;;;;;;;4.50;2.80;;;;;;;;;;4123830;34;20192;-70
2021/04/29 05:24:52;;;;;;;5.57;2.75;;;;;;;;;;4123790;34;20555;-69
2021/04/29 05:27:18;;;;;;;3.72;2.25;;;;;;;;;;4111256;34;20229;-69
2021/04/29 05:29:44;;;;;;;5.95;2.60;;;;;;;;;;4123802;34;20149;-69
2021/04/29 05:32:11;;;;;;;4.75;2.95;;;;;;;;;;4123461;34;20115;-70
2021/04/29 05:34:37;;;;;;;3.37;2.40;;;;;;;;;;4123716;34;20453;-69
2021/04/29 05:37:04;;;;;;;4.68;2.75;;;;;;;;;;4124353;34;20130;-69
2021/04/29 05:39:29;;;;;;;3.30;2.67;;;;;;;;;;4125845;34;20188;-69
2021/04/29 05:41:55;;;;;;;4.47;2.83;;;;;;;;;;4125022;34;20251;-69
2021/04/29 05:44:21;;;;;;;4.45;2.80;;;;;;;;;;4125006;34;20135;-69
2021/04/29 05:46:47;;;;;;;4.80;3.12;;;;;;;;;;4124825;34;20146;-69
2021/04/29 05:49:13;;;;;;;4.05;3.00;;;;;;;;;;4124921;34;20159;-70
2021/04/29 05:51:40;;;;;;;3.30;2.35;;;;;;;;;;4123787;34;20145;-69
2021/04/29 05:54:06;;;;;;;4.28;2.90;;;;;;;;;;4125113;34;20459;-69
2021/04/29 05:56:32;;;;;;;5.03;2.80;;;;;;;;;;4125688;34;20116;-70
2021/04/29 05:58:58;;;;;;;6.45;2.95;;;;;;;;;;4125727;34;20215;-69
2021/04/29 06:01:24;;;;;;;4.68;2.80;;;;;;;;;;4123374;34;20528;-69
2021/04/29 06:03:50;;;;;;;7.25;3.10;;;;;;;;;;4123262;34;20143;-69
2021/04/29 06:06:17;;;;;;;2.62;2.40;;;;;;;;;;4122950;34;20221;-69
2021/04/29 06:08:43;;;;;;;2.92;2.30;;;;;;;;;;4123291;34;20120;-70
2021/04/29 06:11:09;;;;;;;2.72;2.47;;;;;;;;;;4123719;34;20126;-69
2021/04/29 06:13:35;;;;;;;5.65;3.05;;;;;;;;;;4123271;34;20216;-72
2021/04/29 06:16:01;;;;;;;7.72;2.50;;;;;;;;;;4110705;34;20215;-69
2021/04/29 06:18:27;;;;;;;11.88;2.90;;;;;;;;;;4123329;34;20143;-69
2021/04/29 06:20:53;;;;;;;4.87;2.97;;;;;;;;;;4123056;34;20631;-69
2021/04/29 06:23:19;;;;;;;3.37;2.30;;;;;;;;;;4110645;34;20126;-70
2021/04/29 06:25:45;;;;;;;3.12;2.55;;;;;;;;;;4122924;34;20682;-69
2021/04/29 06:28:11;;;;;;;4.43;2.62;;;;;;;;;;4122854;34;20512;-69
2021/04/29 06:30:38;;;;;;;5.12;2.28;;;;;;;;;;4123721;34;20134;-68
2021/04/29 06:33:04;;;;;;;4.00;2.40;;;;;;;;;;4123043;34;20199;-69
2021/04/29 06:35:30;;;;;;;5.15;2.62;;;;;;;;;;4123193;34;20116;-70
2021/04/29 06:37:56;;;;;;;2.05;1.70;;;;;;;;;;4123150;34;20480;-69
2021/04/29 06:40:22;;;;;;;8.32;2.83;;;;;;;;;;4122859;34;20221;-69
2021/04/29 06:42:47;;;;;;;5.65;2.78;;;;;;;;;;4122927;34;20111;-70
2021/04/29 06:45:14;;;;;;;6.97;3.58;;;;;;;;;;4122875;34;20203;-70
2021/04/29 06:47:39;;;;;;;5.18;2.67;;;;;;;;;;4122784;34;20188;-73
2021/04/29 06:50:06;;;;;;;5.20;2.50;;;;;;;;;;4123111;34;20145;-69
2021/04/29 06:52:32;;;;;;;2.97;2.62;;;;;;;;;;4122707;34;20103;-69
2021/04/29 06:54:58;;;;;;;4.18;2.40;;;;;;;;;;4122594;34;20504;-68
2021/04/29 06:57:24;;;;;;;4.32;2.20;;;;;;;;;;4122529;34;20136;-68
2021/04/29 06:59:50;;;;;;;2.58;2.15;;;;;;;;;;4122791;34;20128;-68
2021/04/29 07:02:16;;;;;;;3.37;2.15;;;;;;;;;;4122688;34;20120;-69
2021/04/29 07:04:42;;;;;;;4.65;2.28;;;;;;;;;;4122988;34;20128;-68
2021/04/29 07:07:08;;;;;;;5.68;2.40;;;;;;;;;;4122720;34;20191;-68
2021/04/29 07:09:34;;;;;;;2.50;2.10;;;;;;;;;;4122615;34;20132;-67
2021/04/29 07:12:00;;;;;;;5.97;2.33;;;;;;;;;;4122424;34;20188;-68
2021/04/29 07:14:26;;;;;;;5.15;2.20;;;;;;;;;;4122697;34;20232;-69
2021/04/29 07:16:52;;;;;;;2.60;2.08;;;;;;;;;;4110773;34;20187;-68
2021/04/29 07:19:18;;;;;;;5.82;2.03;;;;;;;;;;4124564;34;20134;-68
2021/04/29 07:21:43;;;;;;;4.78;2.10;;;;;;;;;;4124684;34;20450;-69
2021/04/29 07:24:10;;;;;;;2.42;2.05;;;;;;;;;;4124818;34;20135;-69
2021/04/29 07:26:35;;;;;;;3.72;2.33;;;;;;;;;;4124599;34;20138;-70
2021/04/29 07:29:05;;;;;;;3.05;1.95;;;;;;;;;;4124687;34;20116;-67
2021/04/29 07:31:31;;;;;;;2.40;2.00;;;;;;;;;;4124763;34;20125;-67
2021/04/29 07:33:58;;;;;;;5.50;1.87;;;;;;;;;;4124853;34;20569;-68
2021/04/29 07:36:24;;;;;;;4.85;2.40;;;;;;;;;;4112463;34;20134;-68
2021/04/29 07:38:53;;;;;;;3.00;1.90;;;;;;;;;;4123327;34;20104;-69
2021/04/29 07:41:23;;;;;;;5.93;1.90;;;;;;;;;;4124580;34;20106;-69
2021/04/29 07:43:50;;;;;;;2.72;2.28;;;;;;;;;;4124927;34;20096;-69
2021/04/29 07:46:16;;;;;;;8.32;1.80;;;;;;;;;;4124716;34;20151;-69
2021/04/29 07:48:42;;;;;;;8.55;2.40;;;;;;;;;;4124450;34;20119;-68
2021/04/29 07:51:07;;;;;;;5.87;1.83;;;;;;;;;;4124712;34;20107;-66
2021/04/29 07:53:33;;;;;;;12.88;2.53;;;;;;;;;;4124526;34;20578;-67
2021/04/29 07:55:59;;;;;;;2.20;2.00;;;;;;;;;;4124509;34;20536;-67
2021/04/29 07:58:26;;;;;;;4.37;2.10;;;;;;;;;;4124386;34;20295;-67
2021/04/29 08:00:52;;;;;;;8.45;2.00;;;;;;;;;;4124253;34;20627;-67
2021/04/29 08:03:18;;;;;;;5.25;1.67;;;;;;;;;;4112211;34;20157;-67
2021/04/29 08:05:44;;;;;;;3.75;2.10;;;;;;;;;;4124255;34;20115;-67
2021/04/29 08:08:10;;;;;;;3.58;1.85;;;;;;;;;;4124286;34;20146;-67
2021/04/29 08:10:39;;;;;;;4.15;1.90;;;;;;;;;;4124182;34;20119;-67
2021/04/29 08:13:05;;;;;;;3.37;2.17;;;;;;;;;;4124441;34;20588;-67
2021/04/29 08:15:31;;;;;;;4.75;2.17;;;;;;;;;;4124194;34;20120;-66
2021/04/29 08:17:57;;;;;;;6.15;1.98;;;;;;;;;;4124423;34;20108;-65
2021/04/29 08:20:23;;;;;;;2.72;2.10;;;;;;;;;;4111858;34;20568;-66
2021/04/29 08:22:49;;;;;;;2.47;1.95;;;;;;;;;;4124234;34;20123;-67
2021/04/29 08:25:15;;;;;;;4.75;2.20;;;;;;;;;;4124480;34;20151;-65
2021/04/29 08:27:41;;;;;;;3.05;2.28;;;;;;;;;;4124972;34;20118;-66
2021/04/29 08:30:08;;;;;;;3.62;2.17;;;;;;;;;;4127010;34;20119;-66
2021/04/29 08:32:34;;;;;;;5.80;2.35;;;;;;;;;;4128038;34;20104;-69
2021/04/29 08:35:00;;;;;;;2.70;2.10;;;;;;;;;;4135182;34;20524;-68
2021/04/29 08:37:26;;;;;;;4.72;2.55;;;;;;;;;;4131397;34;20107;-68
2021/04/29 08:39:51;;;;;;;6.05;2.15;;;;;;;;;;4113019;34;20126;-69
2021/04/29 08:42:17;;;;;;;4.25;1.62;;;;;;;;;;4112332;34;20131;-68
2021/04/29 08:44:43;;;;;;;2.30;2.10;;;;;;;;;;4124277;34;20128;-66
2021/04/29 08:47:09;;;;;;;2.67;2.00;;;;;;;;;;4124116;34;20107;-67
2021/04/29 08:49:36;;;;;;;2.42;2.12;;;;;;;;;;4124156;34;20141;-67
2021/04/29 08:52:03;;;;;;;5.50;2.20;;;;;;;;;;4124363;34;20119;-67
2021/04/29 08:54:29;;;;;;;8.85;2.50;;;;;;;;;;4124099;34;20194;-67
2021/04/29 08:56:54;;;;;;;3.35;2.30;;;;;;;;;;4123864;34;20123;-72
2021/04/29 08:59:21;;;;;;;4.62;2.08;;;;;;;;;;4123856;34;20127;-67
2021/04/29 09:01:47;;;;;;;2.37;1.90;;;;;;;;;;4111378;34;20207;-67
2021/04/29 09:04:17;;;;;;;6.07;2.28;;;;;;;;;;4122989;34;20127;-68
2021/04/29 09:06:45;;;;;;;2.58;2.10;;;;;;;;;;4108229;34;20158;-68
2021/04/29 09:09:15;;;;;;;6.50;2.50;;;;;;;;;;4123334;34;20508;-67
2021/04/29 09:11:54;;;;;;;3.28;2.35;;;;;;;;;;4123933;34;20107;-67
2021/04/29 09:14:34;;;;;;;2.33;2.00;;;;;;;;;;4120319;34;20108;-68
2021/04/29 09:17:00;;;;;;;4.53;2.15;;;;;;;;;;4112472;34;20122;-68
2021/04/29 09:19:27;;;;;;;3.70;2.35;;;;;;;;;;4123447;34;20203;-68
2021/04/29 09:21:54;;;;;;;7.80;2.30;;;;;;;;;;4123467;34;20107;-68
2021/04/29 09:24:36;;;;;;;4.25;2.40;;;;;;;;;;4111397;34;20204;-68
2021/04/29 09:27:16;;;;;;;4.57;1.92;;;;;;;;;;4121489;34;20167;-68
2021/04/29 09:30:09;;;;;;;2.85;2.10;;;;;;;;;;4102445;34;20112;-68
2021/04/29 09:32:38;;;;;;;4.37;1.80;;;;;;;;;;4109087;34;20108;-68
2021/04/29 09:35:06;;;;;;;4.05;3.10;;;;;;;;;;4110124;34;20234;-68
2021/04/29 09:37:37;;;;;;;4.65;2.30;;;;;;;;;;4110135;34;20220;-68
2021/04/29 09:40:05;;;;;;;2.55;1.73;;;;;;;;;;4122748;34;20130;-68
2021/04/29 09:42:36;;;;;;;2.55;1.83;;;;;;;;;;4136739;34;20515;-68
2021/04/29 09:45:03;;;;;;;3.90;2.17;;;;;;;;;;4131176;34;20123;-68
2021/04/29 09:47:30;;;;;;;7.15;2.40;;;;;;;;;;4113243;34;20232;-68
2021/04/29 09:49:56;;;;;;;4.18;1.83;;;;;;;;;;4110602;34;20112;-69
2021/04/29 09:52:24;;;;;;;5.32;2.37;;;;;;;;;;4110359;34;20154;-69
2021/04/29 09:54:51;;;;;;;4.68;2.10;;;;;;;;;;4123236;34;20291;-70
2021/04/29 09:57:26;;;;;;;2.33;1.90;;;;;;;;;;4101097;34;20136;-66
2021/04/29 09:59:59;;;;;;;2.67;1.75;;;;;;;;;;4123236;34;20116;-68
2021/04/29 10:02:25;;;;;;;3.05;2.00;;;;;;;;;;4112123;34;20162;-69
2021/04/29 10:04:52;;;;;;;4.78;2.53;;;;;;;;;;4123389;34;20175;-68
2021/04/29 10:07:19;;;;;;;2.83;2.00;;;;;;;;;;4123156;34;20120;-68
2021/04/29 10:09:46;;;;;;;12.35;2.30;;;;;;;;;;4123279;34;20116;-68
2021/04/29 10:12:16;;;;;;;4.53;2.10;;;;;;;;;;4110983;34;20130;-68
2021/04/29 10:14:49;;;;;;;2.55;1.80;;;;;;;;;;4123430;34;20096;-68
2021/04/29 10:17:17;;;;;;;6.43;3.00;;;;;;;;;;4123250;34;20223;-68
2021/04/29 10:20:01;;;;;;;4.75;1.90;;;;;;;;;;4122613;34;20123;-68
2021/04/29 10:22:27;;;;;;;3.85;2.30;;;;;;;;;;4099406;34;20130;-71
2021/04/29 10:24:56;;;;;;;3.12;1.80;;;;;;;;;;4113752;34;20083;-69
2021/04/29 10:27:23;;;;;;;5.47;1.85;;;;;;;;;;4124500;34;20203;-70
2021/04/29 10:30:09;;;;;;;2.00;1.80;;;;;;;;;;4127491;34;20163;-71
2021/04/29 10:32:35;;;;;;;3.97;1.93;;;;;;;;;;4125436;34;20110;-69
2021/04/29 10:35:22;;;;;;;2.80;2.10;;;;;;;;;;4124741;34;20095;-69
2021/04/29 10:37:55;;;;;;;2.95;1.75;;;;;;;;;;4128195;34;20127;-70
2021/04/29 10:40:31;;;;;;;4.93;2.22;;;;;;;;;;4124279;34;20122;-70
2021/04/29 10:42:57;;;;;;;2.95;2.05;;;;;;;;;;4111688;34;20104;-68
2021/04/29 10:45:23;;;;;;;2.58;1.85;;;;;;;;;;4109668;34;20151;-68
2021/04/29 10:47:50;;;;;;;6.93;2.12;;;;;;;;;;4110530;34;20135;-67
2021/04/29 10:50:18;;;;;;;3.08;1.77;;;;;;;;;;4111005;34;20130;-69
2021/04/29 10:52:48;;;;;;;2.60;1.70;;;;;;;;;;4125087;34;20467;-68
2021/04/29 10:55:30;;;;;;;5.00;2.20;;;;;;;;;;4112604;34;20520;-68
2021/04/29 10:57:57;;;;;;;3.67;2.00;;;;;;;;;;4124854;34;20094;-69
2021/04/29 11:00:29;;;;;;;5.15;1.90;;;;;;;;;;4112599;34;20127;-68
2021/04/29 11:03:05;;;;;;;3.05;1.90;;;;;;;;;;4124951;34;20104;-68
2021/04/29 11:05:32;;;;;;;6.05;2.20;;;;;;;;;;4125254;34;20111;-71
2021/04/29 11:08:06;;;;;;;2.72;2.00;;;;;;;;;;4113138;34;20142;-68
2021/04/29 11:10:33;;;;;;;2.28;2.00;;;;;;;;;;4112816;34;20103;-68
2021/04/29 11:13:00;;;;;;;2.28;1.85;;;;;;;;;;4112426;34;20107;-68
2021/04/29 11:15:31;;;;;;;3.28;2.00;;;;;;;;;;4112762;34;20522;-68
2021/04/29 11:18:10;;;;;;;2.25;1.45;;;;;;;;;;4124727;34;20127;-68
2021/04/29 11:20:47;;;;;;;2.62;1.75;;;;;;;;;;4124784;34;20100;-67
2021/04/29 11:23:14;;;;;;;3.85;1.75;;;;;;;;;;4125267;34;20104;-68
2021/04/29 11:25:40;;;;;;;3.45;1.95;;;;;;;;;;4124952;34;20112;-68
2021/04/29 11:28:06;;;;;;;5.50;2.00;;;;;;;;;;4112078;34;20186;-68
2021/04/29 11:30:32;;;;;;;2.25;1.87;;;;;;;;;;4124698;34;20119;-68
2021/04/29 11:33:00;;;;;;;3.15;1.70;;;;;;;;;;4125301;34;20232;-69
2021/04/29 11:35:27;;;;;;;4.22;2.33;;;;;;;;;;4116555;34;20127;-69
2021/04/29 11:37:53;;;;;;;2.10;1.90;;;;;;;;;;4124759;34;20130;-68
2021/04/29 11:40:19;;;;;;;3.17;2.00;;;;;;;;;;4124496;34;20227;-68
2021/04/29 11:42:49;;;;;;;4.37;2.30;;;;;;;;;;4124611;34;20527;-69
2021/04/29 11:45:17;;;;;;;3.58;2.22;;;;;;;;;;4111988;34;20666;-68
2021/04/29 11:48:06;;;;;;;3.90;1.98;;;;;;;;;;4124622;34;20631;-68
2021/04/29 11:50:41;;;;;;;4.87;1.75;;;;;;;;;;4124401;34;20098;-68
2021/04/29 11:53:17;;;;;;;;;;;;;;;;;;4124773;34;20179;-68
2021/04/29 11:55:48;;;;;;;2.63;2.37;;;;;;;;;;4124349;34;20451;-69
2021/04/29 11:58:20;;;;;;;2.87;2.20;;;;;;;;;;4112485;34;20236;-68
2021/04/29 12:00:52;;;;;;;4.03;2.00;;;;;;;;;;4112280;34;20116;-68
2021/04/29 12:03:18;;;;;;;3.10;2.17;;;;;;;;;;4125027;34;20111;-68
2021/04/29 12:06:00;;;;;;;2.17;1.87;;;;;;;;;;4113080;34;20108;-68
2021/04/29 12:08:27;;;;;;;3.58;1.70;;;;;;;;;;4113726;34;20461;-68
2021/04/29 12:10:54;;;;;;;2.00;1.60;;;;;;;;;;4124525;34;20127;-69
2021/04/29 12:13:34;;;;;;;1.87;1.70;;;;;;;;;;4124682;34;20111;-68
2021/04/29 12:16:07;;;;;;;7.28;2.00;;;;;;;;;;4124561;34;20544;-69
2021/04/29 12:18:34;;;;;;;5.70;1.95;;;;;;;;;;4112472;34;20508;-68
2021/04/29 12:21:00;;;;;;;2.40;1.58;;;;;;;;;;4111618;34;20171;-68
2021/04/29 12:23:26;;;;;;;1.98;1.77;;;;;;;;;;4112286;34;20244;-68
2021/04/29 12:26:00;;;;;;;3.70;2.17;;;;;;;;;;4111820;34;20497;-69
2021/04/29 12:28:31;;;;;;;2.17;1.70;;;;;;;;;;4124074;34;20094;-68
2021/04/29 12:30:56;;;;;;;1.50;1.40;;;;;;;;;;4124226;34;20549;-69
2021/04/29 12:33:22;;;;;;;3.50;2.00;;;;;;;;;;4124574;34;20124;-68
2021/04/29 12:35:49;;;;;;;4.32;2.10;;;;;;;;;;4125339;34;20190;-69
2021/04/29 12:38:17;;;;;;;4.00;1.90;;;;;;;;;;4124624;34;20445;-69
2021/04/29 12:40:43;;;;;;;5.65;2.00;;;;;;;;;;4125070;34;20096;-69
2021/04/29 12:43:19;;;;;;;2.33;1.90;;;;;;;;;;4124824;34;20619;-68
2021/04/29 12:45:50;;;;;;;3.35;2.12;;;;;;;;;;4124304;34;20107;-70
2021/04/29 12:48:24;;;;;;;5.70;3.17;;;;;;;;;;4124594;34;20300;-68
2021/04/29 12:51:04;;;;;;;7.25;4.35;;;;;;;;;;4112543;34;20130;-69
2021/04/29 12:53:29;;;;;;;3.70;1.98;;;;;;;;;;4126087;34;20106;-74
2021/04/29 12:55:55;;;;;;;4.35;2.03;;;;;;;;;;4127366;34;20100;-70
2021/04/29 12:58:28;;;;;;;4.07;1.80;;;;;;;;;;4125809;34;20546;-71
2021/04/29 13:00:55;;;;;;;3.35;2.20;;;;;;;;;;4112559;34;20100;-72
2021/04/29 13:03:42;;;;;;;2.35;1.80;;;;;;;;;;4124553;34;20104;-70
2021/04/29 13:06:10;;;;;;;2.85;2.00;;;;;;;;;;4112787;34;20134;-72
2021/04/29 13:08:45;;;;;;;2.65;1.95;;;;;;;;;;4126278;34;20232;-69
2021/04/29 13:11:11;;;;;;;;;;;;;;;;;;4126218;34;20139;-70
2021/04/29 13:13:37;;;;;;;3.03;1.87;;;;;;;;;;4127963;34;20353;-68
2021/04/29 13:16:03;;;;;;;3.10;1.80;;;;;;;;;;4125504;34;20204;-69
2021/04/29 13:18:29;;;;;;;3.37;1.83;;;;;;;;;;4125469;34;20127;-69
2021/04/29 13:20:54;;;;;;;3.65;1.85;;;;;;;;;;4125331;34;20131;-68
2021/04/29 13:23:21;;;;;;;2.90;1.80;;;;;;;;;;4126140;34;20191;-69
2021/04/29 13:25:47;;;;;;;3.47;2.10;;;;;;;;;;4124547;34;20139;-72
2021/04/29 13:28:14;;;;;;;2.40;1.87;;;;;;;;;;4115433;34;20119;-70
2021/04/29 13:30:40;;;;;;;2.80;2.10;;;;;;;;;;4124955;34;20521;-67
2021/04/29 13:33:07;;;;;;;2.35;1.95;;;;;;;;;;4124273;34;20571;-69
2021/04/29 13:35:33;;;;;;;1.80;1.70;;;;;;;;;;4124231;34;20190;-67
2021/04/29 13:37:59;;;;;;;2.65;2.00;;;;;;;;;;4124833;34;20120;-69
2021/04/29 13:40:25;;;;;;;3.45;2.00;;;;;;;;;;4125146;34;20608;-69
2021/04/29 13:42:51;;;;;;;3.12;2.10;;;;;;;;;;4123762;34;20626;-67
2021/04/29 13:45:17;;;;;;;4.95;2.22;;;;;;;;;;4123565;34;20142;-66
2021/04/29 13:47:44;;;;;;;2.72;1.70;;;;;;;;;;4123462;34;20453;-67
2021/04/29 13:50:11;;;;;;;4.18;2.20;;;;;;;;;;4123522;34;20202;-67
2021/04/29 13:52:37;;;;;;;3.95;2.12;;;;;;;;;;4123506;34;20119;-68
2021/04/29 13:55:03;;;;;;;2.25;1.58;;;;;;;;;;4123481;34;20524;-70
2021/04/29 13:57:29;;;;;;;4.37;1.80;;;;;;;;;;4122111;34;20515;-67
2021/04/29 13:59:55;;;;;;;3.05;1.95;;;;;;;;;;4123529;34;20108;-69
2021/04/29 14:02:21;;;;;;;4.00;2.00;;;;;;;;;;4123437;34;20115;-71
2021/04/29 14:04:48;;;;;;;4.15;2.28;;;;;;;;;;4110855;34;20098;-69
2021/04/29 14:07:14;;;;;;;7.87;2.45;;;;;;;;;;4123421;34;20535;-69
2021/04/29 14:09:40;;;;;;;3.17;2.15;;;;;;;;;;4123832;34;20134;-69
2021/04/29 14:12:07;;;;;;;2.55;2.03;;;;;;;;;;4123013;34;20106;-70
2021/04/29 14:14:33;;;;;;;6.37;2.33;;;;;;;;;;4121674;34;20119;-71
2021/04/29 14:16:59;;;;;;;2.72;2.12;;;;;;;;;;4122938;34;20103;-69
2021/04/29 14:19:26;;;;;;;4.60;1.90;;;;;;;;;;4123025;34;20116;-69
2021/04/29 14:21:52;;;;;;;4.75;2.45;;;;;;;;;;4123063;34;20547;-68
2021/04/29 14:24:18;;;;;;;2.97;1.80;;;;;;;;;;4123432;34;20127;-68
2021/04/29 14:26:44;;;;;;;5.03;1.90;;;;;;;;;;4126734;34;20207;-69
2021/04/29 14:29:10;;;;;;;3.08;2.00;;;;;;;;;;4115270;34;20149;-68
2021/04/29 14:31:36;;;;;;;6.37;2.50;;;;;;;;;;4127520;34;20216;-69
2021/04/29 14:34:02;;;;;;;6.10;2.30;;;;;;;;;;4127492;34;20224;-68
2021/04/29 14:36:28;;;;;;;3.25;2.25;;;;;;;;;;4127399;34;20627;-69
2021/04/29 14:38:54;;;;;;;4.28;2.20;;;;;;;;;;4127569;34;20535;-69
2021/04/29 14:41:20;;;;;;;3.10;2.47;;;;;;;;;;4128000;34;20141;-68
2021/04/29 14:43:46;;;;;;;6.12;2.53;;;;;;;;;;4127622;34;20566;-68
2021/04/29 14:46:14;;;;;;;3.40;2.17;;;;;;;;;;4127019;34;20118;-68
2021/04/29 14:48:40;;;;;;;4.78;2.47;;;;;;;;;;4127252;34;20096;-68
2021/04/29 14:51:07;;;;;;;5.78;3.15;;;;;;;;;;4114930;34;20108;-68
2021/04/29 14:53:33;;;;;;;6.87;3.58;;;;;;;;;;4127104;34;20107;-68
2021/04/29 14:55:59;;;;;;;6.65;3.20;;;;;;;;;;4127677;34;20131;-68
2021/04/29 14:58:25;;;;;;;6.53;3.30;;;;;;;;;;4114986;34;20112;-68
2021/04/29 15:00:51;;;;;;;10.07;4.65;;;;;;;;;;4127246;34;20193;-69
2021/04/29 15:03:17;;;;;;;7.28;3.30;;;;;;;;;;4114802;34;20142;-68
2021/04/29 15:05:43;;;;;;;7.95;4.40;;;;;;;;;;4127697;34;20608;-68
2021/04/29 15:08:11;;;;;;;6.35;4.10;;;;;;;;;;4128739;34;20120;-69
2021/04/29 15:10:37;;;;;;;10.27;4.37;;;;;;;;;;4128711;34;20198;-68
2021/04/29 15:13:04;;;;;;;9.73;4.72;;;;;;;;;;4127797;34;20123;-68